Terminal Aerodrome Forecast
Issued by NWS

Home | Current Version | Previous Version | Text Only | Print | Product List | Glossary On
Versions: 1 2 3 4 5 6 7 8 9 10 11 12 13
000
FTUS42 TJSJ 220038 AAA
TAFJMZ
TAF AMD
TJMZ 220038Z 2201/2224 06010KT P6SM SCT060
     FM221300 09015KT P6SM SCT040
     FM222300 06010KT P6SM FEW060
      AMD NOT SKED=

USA.gov is the U.S. government's official web portal to all federal, state and local government web resources and services.